sensor_id;sensor_type;location;lat;lon;timestamp;temperature;humidity
1277;DHT22;631;51.024;13.826;2023-04-16T00:00:48;7.30;99.90
1277;DHT22;631;51.024;13.826;2023-04-16T00:03:14;7.30;99.90
1277;DHT22;631;51.024;13.826;2023-04-16T00:05:40;7.30;99.90
1277;DHT22;631;51.024;13.826;2023-04-16T00:08:06;7.30;99.90
1277;DHT22;631;51.024;13.826;2023-04-16T00:10:33;7.30;99.90
1277;DHT22;631;51.024;13.826;2023-04-16T00:12:58;7.20;99.90
1277;DHT22;631;51.024;13.826;2023-04-16T00:15:24;7.20;99.90
1277;DHT22;631;51.024;13.826;2023-04-16T00:17:50;7.10;99.90
1277;DHT22;631;51.024;13.826;2023-04-16T00:20:15;7.10;99.90
1277;DHT22;631;51.024;13.826;2023-04-16T00:22:41;7.00;99.90
1277;DHT22;631;51.024;13.826;2023-04-16T00:25:07;7.00;99.90
1277;DHT22;631;51.024;13.826;2023-04-16T00:27:32;6.90;99.90
1277;DHT22;631;51.024;13.826;2023-04-16T00:29:58;6.90;99.90
1277;DHT22;631;51.024;13.826;2023-04-16T00:32:24;6.80;99.90
1277;DHT22;631;51.024;13.826;2023-04-16T00:34:49;6.80;99.90
1277;DHT22;631;51.024;13.826;2023-04-16T00:37:15;6.70;99.90
1277;DHT22;631;51.024;13.826;2023-04-16T00:39:41;6.70;99.90
1277;DHT22;631;51.024;13.826;2023-04-16T00:42:06;6.60;99.90
1277;DHT22;631;51.024;13.826;2023-04-16T00:44:32;6.60;99.90
1277;DHT22;631;51.024;13.826;2023-04-16T00:47:01;6.50;99.90
1277;DHT22;631;51.024;13.826;2023-04-16T00:49:27;6.50;99.90
1277;DHT22;631;51.024;13.826;2023-04-16T00:51:54;6.40;99.90
1277;DHT22;631;51.024;13.826;2023-04-16T00:54:20;6.30;99.90
1277;DHT22;631;51.024;13.826;2023-04-16T00:56:45;6.30;99.90
1277;DHT22;631;51.024;13.826;2023-04-16T00:59:11;6.20;99.90
1277;DHT22;631;51.024;13.826;2023-04-16T01:01:37;6.10;99.90
1277;DHT22;631;51.024;13.826;2023-04-16T01:04:03;6.10;99.90
1277;DHT22;631;51.024;13.826;2023-04-16T01:06:28;6.10;99.90
1277;DHT22;631;51.024;13.826;2023-04-16T01:08:54;6.00;99.90
1277;DHT22;631;51.024;13.826;2023-04-16T01:11:20;6.00;99.90
1277;DHT22;631;51.024;13.826;2023-04-16T01:13:46;5.90;99.90
1277;DHT22;631;51.024;13.826;2023-04-16T01:16:11;5.90;99.90
1277;DHT22;631;51.024;13.826;2023-04-16T01:18:37;5.80;99.90
1277;DHT22;631;51.024;13.826;2023-04-16T01:21:03;5.80;99.90
1277;DHT22;631;51.024;13.826;2023-04-16T01:23:30;5.80;99.90
1277;DHT22;631;51.024;13.826;2023-04-16T01:25:55;5.70;99.90
1277;DHT22;631;51.024;13.826;2023-04-16T01:28:21;5.70;99.90
1277;DHT22;631;51.024;13.826;2023-04-16T01:30:47;5.60;99.90
1277;DHT22;631;51.024;13.826;2023-04-16T01:33:13;5.60;99.90
1277;DHT22;631;51.024;13.826;2023-04-16T01:35:40;5.60;99.90
1277;DHT22;631;51.024;13.826;2023-04-16T01:38:07;5.50;99.90
1277;DHT22;631;51.024;13.826;2023-04-16T01:40:33;5.50;99.90
1277;DHT22;631;51.024;13.826;2023-04-16T01:42:59;5.50;99.90
1277;DHT22;631;51.024;13.826;2023-04-16T01:45:25;5.50;99.90
1277;DHT22;631;51.024;13.826;2023-04-16T01:47:51;5.50;99.90
1277;DHT22;631;51.024;13.826;2023-04-16T01:50:17;5.50;99.90
1277;DHT22;631;51.024;13.826;2023-04-16T01:52:43;5.40;99.90
1277;DHT22;631;51.024;13.826;2023-04-16T01:55:09;5.40;99.90
1277;DHT22;631;51.024;13.826;2023-04-16T01:57:35;5.40;99.90
1277;DHT22;631;51.024;13.826;2023-04-16T02:00:01;5.40;99.90
1277;DHT22;631;51.024;13.826;2023-04-16T02:02:27;5.30;99.90
1277;DHT22;631;51.024;13.826;2023-04-16T02:04:53;5.30;99.90
1277;DHT22;631;51.024;13.826;2023-04-16T02:07:21;5.20;99.90
1277;DHT22;631;51.024;13.826;2023-04-16T02:09:47;5.20;99.90
1277;DHT22;631;51.024;13.826;2023-04-16T02:12:15;5.20;99.90
1277;DHT22;631;51.024;13.826;2023-04-16T02:14:40;5.20;99.90
1277;DHT22;631;51.024;13.826;2023-04-16T02:17:06;5.20;99.90
1277;DHT22;631;51.024;13.826;2023-04-16T02:19:32;5.20;99.90
1277;DHT22;631;51.024;13.826;2023-04-16T02:21:57;5.10;99.90
1277;DHT22;631;51.024;13.826;2023-04-16T02:24:23;5.10;99.90
1277;DHT22;631;51.024;13.826;2023-04-16T02:26:48;5.00;99.90
1277;DHT22;631;51.024;13.826;2023-04-16T02:29:14;5.00;99.90
1277;DHT22;631;51.024;13.826;2023-04-16T02:31:40;4.90;99.90
1277;DHT22;631;51.024;13.826;2023-04-16T02:34:06;4.90;99.90
1277;DHT22;631;51.024;13.826;2023-04-16T02:36:32;4.90;99.90
1277;DHT22;631;51.024;13.826;2023-04-16T02:38:58;4.90;99.90
1277;DHT22;631;51.024;13.826;2023-04-16T02:41:24;4.90;99.90
1277;DHT22;631;51.024;13.826;2023-04-16T02:43:49;4.80;99.90
1277;DHT22;631;51.024;13.826;2023-04-16T02:46:15;4.80;99.90
1277;DHT22;631;51.024;13.826;2023-04-16T02:48:41;4.80;99.90
1277;DHT22;631;51.024;13.826;2023-04-16T02:51:06;4.80;99.90
1277;DHT22;631;51.024;13.826;2023-04-16T02:53:32;4.80;99.90
1277;DHT22;631;51.024;13.826;2023-04-16T02:55:58;4.80;99.90
1277;DHT22;631;51.024;13.826;2023-04-16T02:58:25;4.80;99.90
1277;DHT22;631;51.024;13.826;2023-04-16T03:00:52;4.80;99.90
1277;DHT22;631;51.024;13.826;2023-04-16T03:03:18;4.80;99.90
1277;DHT22;631;51.024;13.826;2023-04-16T03:05:44;4.70;99.90
1277;DHT22;631;51.024;13.826;2023-04-16T03:08:10;4.70;99.90
1277;DHT22;631;51.024;13.826;2023-04-16T03:10:35;4.70;99.90
1277;DHT22;631;51.024;13.826;2023-04-16T03:13:01;4.70;99.90
1277;DHT22;631;51.024;13.826;2023-04-16T03:15:27;4.60;99.90
1277;DHT22;631;51.024;13.826;2023-04-16T03:17:53;4.60;99.90
1277;DHT22;631;51.024;13.826;2023-04-16T03:20:19;4.50;99.90
1277;DHT22;631;51.024;13.826;2023-04-16T03:22:45;4.50;99.90
1277;DHT22;631;51.024;13.826;2023-04-16T03:25:11;4.50;99.90
1277;DHT22;631;51.024;13.826;2023-04-16T03:27:37;4.50;99.90
1277;DHT22;631;51.024;13.826;2023-04-16T03:30:07;4.40;99.90
1277;DHT22;631;51.024;13.826;2023-04-16T03:32:33;4.40;99.90
1277;DHT22;631;51.024;13.826;2023-04-16T03:34:58;4.40;99.90
1277;DHT22;631;51.024;13.826;2023-04-16T03:37:24;4.30;99.90
1277;DHT22;631;51.024;13.826;2023-04-16T03:39:50;4.30;99.90
1277;DHT22;631;51.024;13.826;2023-04-16T03:42:16;4.20;99.90
1277;DHT22;631;51.024;13.826;2023-04-16T03:44:41;4.20;99.90
1277;DHT22;631;51.024;13.826;2023-04-16T03:47:07;4.20;99.90
1277;DHT22;631;51.024;13.826;2023-04-16T03:49:32;4.10;99.90
1277;DHT22;631;51.024;13.826;2023-04-16T03:51:58;4.10;99.90
1277;DHT22;631;51.024;13.826;2023-04-16T03:54:24;4.10;99.90
1277;DHT22;631;51.024;13.826;2023-04-16T03:56:49;4.00;99.90
1277;DHT22;631;51.024;13.826;2023-04-16T03:59:16;4.00;99.90
1277;DHT22;631;51.024;13.826;2023-04-16T04:01:42;4.00;99.90
1277;DHT22;631;51.024;13.826;2023-04-16T04:04:08;3.90;99.90
1277;DHT22;631;51.024;13.826;2023-04-16T04:06:34;3.90;99.90
1277;DHT22;631;51.024;13.826;2023-04-16T04:09:00;3.90;99.90
1277;DHT22;631;51.024;13.826;2023-04-16T04:11:26;3.90;99.90
1277;DHT22;631;51.024;13.826;2023-04-16T04:13:51;3.80;99.90
1277;DHT22;631;51.024;13.826;2023-04-16T04:16:17;3.80;99.90
1277;DHT22;631;51.024;13.826;2023-04-16T04:18:42;3.80;99.90
1277;DHT22;631;51.024;13.826;2023-04-16T04:21:08;3.80;99.90
1277;DHT22;631;51.024;13.826;2023-04-16T04:23:35;3.80;99.90
1277;DHT22;631;51.024;13.826;2023-04-16T04:26:01;3.80;99.90
1277;DHT22;631;51.024;13.826;2023-04-16T04:28:28;3.70;99.90
1277;DHT22;631;51.024;13.826;2023-04-16T04:30:56;3.70;99.90
1277;DHT22;631;51.024;13.826;2023-04-16T04:33:21;3.70;99.90
1277;DHT22;631;51.024;13.826;2023-04-16T04:35:47;3.70;99.90
1277;DHT22;631;51.024;13.826;2023-04-16T04:38:12;3.70;99.90
1277;DHT22;631;51.024;13.826;2023-04-16T04:40:38;3.70;99.90
1277;DHT22;631;51.024;13.826;2023-04-16T04:43:04;3.70;99.90
1277;DHT22;631;51.024;13.826;2023-04-16T04:45:29;3.70;99.90
1277;DHT22;631;51.024;13.826;2023-04-16T04:47:55;3.70;99.90
1277;DHT22;631;51.024;13.826;2023-04-16T04:50:21;3.70;99.90
1277;DHT22;631;51.024;13.826;2023-04-16T04:52:46;3.70;99.90
1277;DHT22;631;51.024;13.826;2023-04-16T04:55:12;3.80;99.90
1277;DHT22;631;51.024;13.826;2023-04-16T04:57:40;3.80;99.90
1277;DHT22;631;51.024;13.826;2023-04-16T05:00:06;3.90;99.90
1277;DHT22;631;51.024;13.826;2023-04-16T05:02:32;3.90;99.90
1277;DHT22;631;51.024;13.826;2023-04-16T05:04:58;3.90;99.90
1277;DHT22;631;51.024;13.826;2023-04-16T05:07:23;3.90;99.90
1277;DHT22;631;51.024;13.826;2023-04-16T05:09:49;3.90;99.90
1277;DHT22;631;51.024;13.826;2023-04-16T05:12:15;3.90;99.90
1277;DHT22;631;51.024;13.826;2023-04-16T05:14:41;3.90;99.90
1277;DHT22;631;51.024;13.826;2023-04-16T05:17:06;4.00;99.90
1277;DHT22;631;51.024;13.826;2023-04-16T05:19:32;4.00;99.90
1277;DHT22;631;51.024;13.826;2023-04-16T05:21:58;4.00;99.90
1277;DHT22;631;51.024;13.826;2023-04-16T05:24:24;4.10;99.90
1277;DHT22;631;51.024;13.826;2023-04-16T05:26:50;4.10;99.90
1277;DHT22;631;51.024;13.826;2023-04-16T05:29:15;4.10;99.90
1277;DHT22;631;51.024;13.826;2023-04-16T05:31:41;4.20;99.90
1277;DHT22;631;51.024;13.826;2023-04-16T05:34:07;4.20;99.90
1277;DHT22;631;51.024;13.826;2023-04-16T05:36:32;4.20;99.90
1277;DHT22;631;51.024;13.826;2023-04-16T05:38:58;4.30;99.90
1277;DHT22;631;51.024;13.826;2023-04-16T05:41:23;4.40;99.90
1277;DHT22;631;51.024;13.826;2023-04-16T05:43:49;4.50;99.90
1277;DHT22;631;51.024;13.826;2023-04-16T05:46:15;4.50;99.90
1277;DHT22;631;51.024;13.826;2023-04-16T05:48:41;4.60;99.90
1277;DHT22;631;51.024;13.826;2023-04-16T05:51:07;4.60;99.90
1277;DHT22;631;51.024;13.826;2023-04-16T05:53:32;4.80;99.90
1277;DHT22;631;51.024;13.826;2023-04-16T05:55:58;4.90;99.90
1277;DHT22;631;51.024;13.826;2023-04-16T05:58:23;5.00;99.90
1277;DHT22;631;51.024;13.826;2023-04-16T06:00:49;5.10;99.90
1277;DHT22;631;51.024;13.826;2023-04-16T06:03:15;5.20;99.90
1277;DHT22;631;51.024;13.826;2023-04-16T06:05:41;5.30;99.90
1277;DHT22;631;51.024;13.826;2023-04-16T06:08:06;5.30;99.90
1277;DHT22;631;51.024;13.826;2023-04-16T06:10:32;5.50;99.90
1277;DHT22;631;51.024;13.826;2023-04-16T06:12:58;5.60;99.90
1277;DHT22;631;51.024;13.826;2023-04-16T06:15:26;5.70;99.90
1277;DHT22;631;51.024;13.826;2023-04-16T06:17:52;5.90;99.90
1277;DHT22;631;51.024;13.826;2023-04-16T06:20:18;6.00;99.90
1277;DHT22;631;51.024;13.826;2023-04-16T06:22:44;6.00;99.90
1277;DHT22;631;51.024;13.826;2023-04-16T06:25:09;6.00;99.90
1277;DHT22;631;51.024;13.826;2023-04-16T06:27:35;6.00;99.90
1277;DHT22;631;51.024;13.826;2023-04-16T06:30:01;6.20;99.90
1277;DHT22;631;51.024;13.826;2023-04-16T06:32:27;6.40;99.90
1277;DHT22;631;51.024;13.826;2023-04-16T06:34:52;6.40;99.90
1277;DHT22;631;51.024;13.826;2023-04-16T06:37:18;6.60;99.90
1277;DHT22;631;51.024;13.826;2023-04-16T06:39:43;6.60;99.90
1277;DHT22;631;51.024;13.826;2023-04-16T06:42:09;6.80;99.90
1277;DHT22;631;51.024;13.826;2023-04-16T06:44:35;6.90;99.90
1277;DHT22;631;51.024;13.826;2023-04-16T06:47:01;7.10;99.90
1277;DHT22;631;51.024;13.826;2023-04-16T06:49:26;7.30;99.90
1277;DHT22;631;51.024;13.826;2023-04-16T06:51:52;7.40;99.90
1277;DHT22;631;51.024;13.826;2023-04-16T06:54:18;7.60;99.90
1277;DHT22;631;51.024;13.826;2023-04-16T06:56:44;7.80;99.90
1277;DHT22;631;51.024;13.826;2023-04-16T06:59:10;7.60;99.90
1277;DHT22;631;51.024;13.826;2023-04-16T07:01:35;7.80;99.90
1277;DHT22;631;51.024;13.826;2023-04-16T07:04:01;8.00;99.90
1277;DHT22;631;51.024;13.826;2023-04-16T07:06:27;8.10;99.90
1277;DHT22;631;51.024;13.826;2023-04-16T07:08:53;8.20;99.90
1277;DHT22;631;51.024;13.826;2023-04-16T07:11:19;8.50;99.90
1277;DHT22;631;51.024;13.826;2023-04-16T07:13:45;8.70;99.90
1277;DHT22;631;51.024;13.826;2023-04-16T07:16:11;8.80;99.90
1277;DHT22;631;51.024;13.826;2023-04-16T07:18:36;9.00;99.90
1277;DHT22;631;51.024;13.826;2023-04-16T07:21:03;9.30;99.90
1277;DHT22;631;51.024;13.826;2023-04-16T07:23:28;9.50;99.90
1277;DHT22;631;51.024;13.826;2023-04-16T07:25:54;9.70;99.90
1277;DHT22;631;51.024;13.826;2023-04-16T07:28:20;9.80;99.90
1277;DHT22;631;51.024;13.826;2023-04-16T07:30:45;10.10;99.90
1277;DHT22;631;51.024;13.826;2023-04-16T07:33:11;10.10;99.90
1277;DHT22;631;51.024;13.826;2023-04-16T07:35:37;10.30;99.90
1277;DHT22;631;51.024;13.826;2023-04-16T07:38:02;10.40;99.90
1277;DHT22;631;51.024;13.826;2023-04-16T07:40:28;10.70;99.90
1277;DHT22;631;51.024;13.826;2023-04-16T07:42:54;10.90;99.90
1277;DHT22;631;51.024;13.826;2023-04-16T07:45:20;11.10;99.90
1277;DHT22;631;51.024;13.826;2023-04-16T07:47:46;11.20;99.90
1277;DHT22;631;51.024;13.826;2023-04-16T07:50:12;11.30;99.90
1277;DHT22;631;51.024;13.826;2023-04-16T07:52:37;11.50;99.90
1277;DHT22;631;51.024;13.826;2023-04-16T07:55:07;11.80;99.90
1277;DHT22;631;51.024;13.826;2023-04-16T07:57:32;11.90;99.90
1277;DHT22;631;51.024;13.826;2023-04-16T07:59:58;12.10;99.90
1277;DHT22;631;51.024;13.826;2023-04-16T08:02:26;12.30;99.90
1277;DHT22;631;51.024;13.826;2023-04-16T08:04:52;12.50;99.90
1277;DHT22;631;51.024;13.826;2023-04-16T08:07:17;12.70;99.90
1277;DHT22;631;51.024;13.826;2023-04-16T08:09:47;12.90;99.90
1277;DHT22;631;51.024;13.826;2023-04-16T08:12:14;13.00;99.90
1277;DHT22;631;51.024;13.826;2023-04-16T08:14:41;13.20;99.90
1277;DHT22;631;51.024;13.826;2023-04-16T08:17:07;13.40;99.90
1277;DHT22;631;51.024;13.826;2023-04-16T08:19:32;13.60;99.90
1277;DHT22;631;51.024;13.826;2023-04-16T08:21:58;13.80;99.90
1277;DHT22;631;51.024;13.826;2023-04-16T08:24:24;13.90;99.90
1277;DHT22;631;51.024;13.826;2023-04-16T08:26:50;14.20;99.90
1277;DHT22;631;51.024;13.826;2023-04-16T08:29:16;14.40;99.90
1277;DHT22;631;51.024;13.826;2023-04-16T08:31:42;14.70;99.90
1277;DHT22;631;51.024;13.826;2023-04-16T08:34:07;15.00;99.90
1277;DHT22;631;51.024;13.826;2023-04-16T08:36:35;15.20;99.90
1277;DHT22;631;51.024;13.826;2023-04-16T08:39:01;15.30;99.90
1277;DHT22;631;51.024;13.826;2023-04-16T08:41:30;15.40;99.90
1277;DHT22;631;51.024;13.826;2023-04-16T08:43:59;15.50;99.90
1277;DHT22;631;51.024;13.826;2023-04-16T08:46:27;15.60;99.90
1277;DHT22;631;51.024;13.826;2023-04-16T08:48:54;15.70;99.20
1277;DHT22;631;51.024;13.826;2023-04-16T08:51:22;15.50;98.90
1277;DHT22;631;51.024;13.826;2023-04-16T08:53:52;15.30;99.70
1277;DHT22;631;51.024;13.826;2023-04-16T08:56:20;15.50;99.80
1277;DHT22;631;51.024;13.826;2023-04-16T08:58:49;15.60;99.90
1277;DHT22;631;51.024;13.826;2023-04-16T09:01:16;15.70;99.90
1277;DHT22;631;51.024;13.826;2023-04-16T09:03:46;15.90;99.90
1277;DHT22;631;51.024;13.826;2023-04-16T09:06:11;16.20;99.90
1277;DHT22;631;51.024;13.826;2023-04-16T09:08:38;16.60;98.80
1277;DHT22;631;51.024;13.826;2023-04-16T09:11:03;17.00;96.70
1277;DHT22;631;51.024;13.826;2023-04-16T09:13:30;17.40;95.20
1277;DHT22;631;51.024;13.826;2023-04-16T09:15:56;17.60;93.60
1277;DHT22;631;51.024;13.826;2023-04-16T09:18:22;17.70;92.60
1277;DHT22;631;51.024;13.826;2023-04-16T09:20:50;18.10;92.10
1277;DHT22;631;51.024;13.826;2023-04-16T09:23:16;18.50;92.40
1277;DHT22;631;51.024;13.826;2023-04-16T09:25:42;19.00;90.20
1277;DHT22;631;51.024;13.826;2023-04-16T09:28:09;19.30;82.40
1277;DHT22;631;51.024;13.826;2023-04-16T09:30:36;19.50;81.80
1277;DHT22;631;51.024;13.826;2023-04-16T09:33:17;19.80;74.00
1277;DHT22;631;51.024;13.826;2023-04-16T09:35:51;20.00;71.80
1277;DHT22;631;51.024;13.826;2023-04-16T09:38:17;20.40;75.10
1277;DHT22;631;51.024;13.826;2023-04-16T09:40:43;20.70;67.80
1277;DHT22;631;51.024;13.826;2023-04-16T09:43:13;20.70;64.50
1277;DHT22;631;51.024;13.826;2023-04-16T09:46:05;20.50;65.30
1277;DHT22;631;51.024;13.826;2023-04-16T09:48:32;20.30;60.60
1277;DHT22;631;51.024;13.826;2023-04-16T09:50:59;20.00;60.20
1277;DHT22;631;51.024;13.826;2023-04-16T09:53:27;19.70;70.00
1277;DHT22;631;51.024;13.826;2023-04-16T09:55:57;19.60;68.90
1277;DHT22;631;51.024;13.826;2023-04-16T09:58:23;19.70;67.10
1277;DHT22;631;51.024;13.826;2023-04-16T10:00:54;19.80;71.80
1277;DHT22;631;51.024;13.826;2023-04-16T10:03:34;19.90;67.80
1277;DHT22;631;51.024;13.826;2023-04-16T10:06:21;19.70;66.20
1277;DHT22;631;51.024;13.826;2023-04-16T10:08:54;19.60;70.10
1277;DHT22;631;51.024;13.826;2023-04-16T10:11:23;19.50;67.60
1277;DHT22;631;51.024;13.826;2023-04-16T10:13:49;19.30;67.10
1277;DHT22;631;51.024;13.826;2023-04-16T10:16:15;19.40;70.10
1277;DHT22;631;51.024;13.826;2023-04-16T10:18:43;19.20;68.30
1277;DHT22;631;51.024;13.826;2023-04-16T10:21:09;19.20;69.60
1277;DHT22;631;51.024;13.826;2023-04-16T10:23:40;18.80;68.10
1277;DHT22;631;51.024;13.826;2023-04-16T10:26:06;18.60;72.20
1277;DHT22;631;51.024;13.826;2023-04-16T10:28:32;18.50;74.20
1277;DHT22;631;51.024;13.826;2023-04-16T10:31:07;18.30;71.70
1277;DHT22;631;51.024;13.826;2023-04-16T10:33:34;18.00;70.30
1277;DHT22;631;51.024;13.826;2023-04-16T10:36:13;17.80;72.00
1277;DHT22;631;51.024;13.826;2023-04-16T10:38:49;17.70;77.40
1277;DHT22;631;51.024;13.826;2023-04-16T10:41:19;17.70;82.80
1277;DHT22;631;51.024;13.826;2023-04-16T10:43:47;17.70;80.60
1277;DHT22;631;51.024;13.826;2023-04-16T10:46:30;17.80;78.70
1277;DHT22;631;51.024;13.826;2023-04-16T10:48:59;18.00;78.90
1277;DHT22;631;51.024;13.826;2023-04-16T10:54:01;18.20;73.30
1277;DHT22;631;51.024;13.826;2023-04-16T10:56:27;18.10;73.10
1277;DHT22;631;51.024;13.826;2023-04-16T10:58:56;18.30;74.90
1277;DHT22;631;51.024;13.826;2023-04-16T11:01:33;18.40;76.70
1277;DHT22;631;51.024;13.826;2023-04-16T11:06:59;18.30;74.80
1277;DHT22;631;51.024;13.826;2023-04-16T11:09:46;18.40;73.00
1277;DHT22;631;51.024;13.826;2023-04-16T11:12:14;18.70;72.00
1277;DHT22;631;51.024;13.826;2023-04-16T11:14:41;19.00;72.70
1277;DHT22;631;51.024;13.826;2023-04-16T11:17:07;19.40;68.90
1277;DHT22;631;51.024;13.826;2023-04-16T11:19:34;19.50;65.20
1277;DHT22;631;51.024;13.826;2023-04-16T11:22:01;19.80;62.70
1277;DHT22;631;51.024;13.826;2023-04-16T11:24:32;20.00;62.10
1277;DHT22;631;51.024;13.826;2023-04-16T11:26:58;20.00;58.30
1277;DHT22;631;51.024;13.826;2023-04-16T11:29:24;20.20;58.80
1277;DHT22;631;51.024;13.826;2023-04-16T11:31:50;20.20;56.70
1277;DHT22;631;51.024;13.826;2023-04-16T11:34:17;20.40;56.40
1277;DHT22;631;51.024;13.826;2023-04-16T11:36:50;20.40;56.80
1277;DHT22;631;51.024;13.826;2023-04-16T11:39:17;20.60;58.60
1277;DHT22;631;51.024;13.826;2023-04-16T11:41:46;20.70;57.70
1277;DHT22;631;51.024;13.826;2023-04-16T11:44:25;20.70;56.20
1277;DHT22;631;51.024;13.826;2023-04-16T11:46:52;21.00;57.10
1277;DHT22;631;51.024;13.826;2023-04-16T11:49:28;20.70;52.30
1277;DHT22;631;51.024;13.826;2023-04-16T11:51:54;20.50;55.10
1277;DHT22;631;51.024;13.826;2023-04-16T11:54:21;20.30;58.30
1277;DHT22;631;51.024;13.826;2023-04-16T11:56:48;20.50;54.80
1277;DHT22;631;51.024;13.826;2023-04-16T11:59:15;20.40;53.10
1277;DHT22;631;51.024;13.826;2023-04-16T12:01:46;20.20;53.70
1277;DHT22;631;51.024;13.826;2023-04-16T12:04:17;20.20;57.20
1277;DHT22;631;51.024;13.826;2023-04-16T12:07:12;19.80;55.00
1277;DHT22;631;51.024;13.826;2023-04-16T12:09:39;19.60;57.30
1277;DHT22;631;51.024;13.826;2023-04-16T12:12:23;19.60;58.70
1277;DHT22;631;51.024;13.826;2023-04-16T12:14:50;19.80;59.40
1277;DHT22;631;51.024;13.826;2023-04-16T12:17:18;20.10;58.80
1277;DHT22;631;51.024;13.826;2023-04-16T12:22:16;20.40;55.00
1277;DHT22;631;51.024;13.826;2023-04-16T12:24:42;20.50;55.00
1277;DHT22;631;51.024;13.826;2023-04-16T12:27:08;20.60;55.70
1277;DHT22;631;51.024;13.826;2023-04-16T12:29:34;20.80;54.10
1277;DHT22;631;51.024;13.826;2023-04-16T12:32:01;20.90;54.60
1277;DHT22;631;51.024;13.826;2023-04-16T12:34:27;20.80;54.50
1277;DHT22;631;51.024;13.826;2023-04-16T12:37:05;20.90;53.90
1277;DHT22;631;51.024;13.826;2023-04-16T12:39:32;20.90;52.80
1277;DHT22;631;51.024;13.826;2023-04-16T12:41:57;20.90;49.90
1277;DHT22;631;51.024;13.826;2023-04-16T12:44:23;20.80;47.30
1277;DHT22;631;51.024;13.826;2023-04-16T12:46:48;20.90;50.80
1277;DHT22;631;51.024;13.826;2023-04-16T12:49:14;21.10;50.50
1277;DHT22;631;51.024;13.826;2023-04-16T12:51:39;20.90;46.60
1277;DHT22;631;51.024;13.826;2023-04-16T12:54:06;21.20;47.70
1277;DHT22;631;51.024;13.826;2023-04-16T12:56:32;21.30;45.60
1277;DHT22;631;51.024;13.826;2023-04-16T12:58:58;21.30;46.80
1277;DHT22;631;51.024;13.826;2023-04-16T13:01:24;21.20;49.50
1277;DHT22;631;51.024;13.826;2023-04-16T13:03:50;21.00;48.40
1277;DHT22;631;51.024;13.826;2023-04-16T13:06:16;20.90;51.30
1277;DHT22;631;51.024;13.826;2023-04-16T13:08:43;20.90;51.00
1277;DHT22;631;51.024;13.826;2023-04-16T13:11:09;20.90;50.90
1277;DHT22;631;51.024;13.826;2023-04-16T13:13:35;20.70;49.50
1277;DHT22;631;51.024;13.826;2023-04-16T13:16:00;20.60;48.40
1277;DHT22;631;51.024;13.826;2023-04-16T13:18:28;20.70;50.50
1277;DHT22;631;51.024;13.826;2023-04-16T13:20:54;20.70;51.30
1277;DHT22;631;51.024;13.826;2023-04-16T13:23:20;20.70;50.90
1277;DHT22;631;51.024;13.826;2023-04-16T13:25:45;20.50;51.00
1277;DHT22;631;51.024;13.826;2023-04-16T13:28:11;20.30;49.80
1277;DHT22;631;51.024;13.826;2023-04-16T13:30:37;20.00;51.20
1277;DHT22;631;51.024;13.826;2023-04-16T13:33:02;19.90;52.40
1277;DHT22;631;51.024;13.826;2023-04-16T13:35:29;19.70;50.60
1277;DHT22;631;51.024;13.826;2023-04-16T13:37:55;19.50;50.70
1277;DHT22;631;51.024;13.826;2023-04-16T13:40:20;19.30;52.10
1277;DHT22;631;51.024;13.826;2023-04-16T13:42:46;19.20;52.20
1277;DHT22;631;51.024;13.826;2023-04-16T13:45:11;19.20;51.00
1277;DHT22;631;51.024;13.826;2023-04-16T13:47:39;19.20;51.40
1277;DHT22;631;51.024;13.826;2023-04-16T13:50:06;19.10;52.90
1277;DHT22;631;51.024;13.826;2023-04-16T13:52:32;19.00;52.30
1277;DHT22;631;51.024;13.826;2023-04-16T13:54:57;19.00;54.90
1277;DHT22;631;51.024;13.826;2023-04-16T13:57:23;18.90;55.30
1277;DHT22;631;51.024;13.826;2023-04-16T13:59:49;18.80;55.80
1277;DHT22;631;51.024;13.826;2023-04-16T14:02:15;18.80;57.60
1277;DHT22;631;51.024;13.826;2023-04-16T14:04:40;18.80;62.80
1277;DHT22;631;51.024;13.826;2023-04-16T14:07:06;18.90;64.00
1277;DHT22;631;51.024;13.826;2023-04-16T14:09:31;18.90;65.10
1277;DHT22;631;51.024;13.826;2023-04-16T14:11:57;18.70;62.20
1277;DHT22;631;51.024;13.826;2023-04-16T14:14:23;18.50;61.00
1277;DHT22;631;51.024;13.826;2023-04-16T14:16:50;18.40;61.80
1277;DHT22;631;51.024;13.826;2023-04-16T14:19:15;18.20;64.90
1277;DHT22;631;51.024;13.826;2023-04-16T14:21:41;17.80;66.40
1277;DHT22;631;51.024;13.826;2023-04-16T14:24:07;17.70;69.00
1277;DHT22;631;51.024;13.826;2023-04-16T14:26:33;17.70;70.20
1277;DHT22;631;51.024;13.826;2023-04-16T14:29:00;17.50;72.20
1277;DHT22;631;51.024;13.826;2023-04-16T14:31:25;17.40;73.40
1277;DHT22;631;51.024;13.826;2023-04-16T14:33:51;17.00;75.40
1277;DHT22;631;51.024;13.826;2023-04-16T14:36:17;16.80;81.00
1277;DHT22;631;51.024;13.826;2023-04-16T14:38:42;16.80;81.40
1277;DHT22;631;51.024;13.826;2023-04-16T14:41:08;16.70;85.80
1277;DHT22;631;51.024;13.826;2023-04-16T14:43:35;16.60;84.00
1277;DHT22;631;51.024;13.826;2023-04-16T14:46:00;16.40;87.60
1277;DHT22;631;51.024;13.826;2023-04-16T14:48:29;16.30;91.70
1277;DHT22;631;51.024;13.826;2023-04-16T14:50:55;16.30;91.80
1277;DHT22;631;51.024;13.826;2023-04-16T14:53:22;16.30;93.00
1277;DHT22;631;51.024;13.826;2023-04-16T14:55:48;16.20;95.40
1277;DHT22;631;51.024;13.826;2023-04-16T14:58:14;16.10;97.30
1277;DHT22;631;51.024;13.826;2023-04-16T15:00:39;16.20;99.80
1277;DHT22;631;51.024;13.826;2023-04-16T15:03:05;16.00;99.90
1277;DHT22;631;51.024;13.826;2023-04-16T15:05:31;15.80;99.90
1277;DHT22;631;51.024;13.826;2023-04-16T15:07:57;15.40;99.90
1277;DHT22;631;51.024;13.826;2023-04-16T15:10:22;15.00;99.90
1277;DHT22;631;51.024;13.826;2023-04-16T15:12:48;14.60;99.90
1277;DHT22;631;51.024;13.826;2023-04-16T15:15:13;14.40;99.90
1277;DHT22;631;51.024;13.826;2023-04-16T15:17:41;14.30;99.90
1277;DHT22;631;51.024;13.826;2023-04-16T15:20:07;14.20;99.90
1277;DHT22;631;51.024;13.826;2023-04-16T15:22:33;14.00;99.90
1277;DHT22;631;51.024;13.826;2023-04-16T15:24:59;13.90;99.90
1277;DHT22;631;51.024;13.826;2023-04-16T15:27:25;13.60;99.90
1277;DHT22;631;51.024;13.826;2023-04-16T15:29:50;13.50;99.90
1277;DHT22;631;51.024;13.826;2023-04-16T15:32:18;13.30;99.90
1277;DHT22;631;51.024;13.826;2023-04-16T15:34:43;13.10;99.90
1277;DHT22;631;51.024;13.826;2023-04-16T15:37:11;13.00;99.90
1277;DHT22;631;51.024;13.826;2023-04-16T15:39:36;12.80;99.90
1277;DHT22;631;51.024;13.826;2023-04-16T15:42:05;12.70;99.90
1277;DHT22;631;51.024;13.826;2023-04-16T15:44:31;12.60;99.90
1277;DHT22;631;51.024;13.826;2023-04-16T15:46:57;12.50;99.90
1277;DHT22;631;51.024;13.826;2023-04-16T15:49:22;12.50;99.90
1277;DHT22;631;51.024;13.826;2023-04-16T15:51:49;12.50;99.90
1277;DHT22;631;51.024;13.826;2023-04-16T15:54:15;12.50;99.90
1277;DHT22;631;51.024;13.826;2023-04-16T15:56:42;12.50;99.90
1277;DHT22;631;51.024;13.826;2023-04-16T15:59:08;12.50;99.90
1277;DHT22;631;51.024;13.826;2023-04-16T16:01:34;12.60;99.90
1277;DHT22;631;51.024;13.826;2023-04-16T16:04:00;12.60;99.90
1277;DHT22;631;51.024;13.826;2023-04-16T16:06:25;12.60;99.90
1277;DHT22;631;51.024;13.826;2023-04-16T16:08:52;12.60;99.90
1277;DHT22;631;51.024;13.826;2023-04-16T16:11:19;12.70;99.90
1277;DHT22;631;51.024;13.826;2023-04-16T16:13:45;12.60;99.90